Time;durP1;ratioP1;P1;durP2;ratioP2;P2;SDS_P1;SDS_P2;PMS_P1;PMS_P2;Temp;Humidity;BMP_temperature;BMP_pressure;BME280_temperature;BME280_humidity;BME280_pressure;Samples;Min_cycle;Max_cycle;Signal;HPM_P1;HPM_P2
2023/10/23 00:00:40;;;;;;;11.70;6.72;;;;;;;8.25;100.00;101101.88;4965690;28;20402;-54
2023/10/23 00:03:05;;;;;;;9.13;6.85;;;;;;;8.17;100.00;101122.13;4991584;28;20544;-54
2023/10/23 00:05:31;;;;;;;9.90;7.07;;;;;;;8.04;100.00;101105.75;4988867;28;20506;-56
2023/10/23 00:07:56;;;;;;;10.65;6.88;;;;;;;7.76;100.00;101080.91;4993021;28;20546;-52
2023/10/23 00:10:21;;;;;;;9.07;7.07;;;;;;;7.85;100.00;101117.47;4975249;28;20065;-56
2023/10/23 00:12:47;;;;;;;12.00;7.15;;;;;;;7.75;100.00;101116.75;4992722;28;20472;-53
2023/10/23 00:15:13;;;;;;;9.25;6.97;;;;;;;7.69;100.00;101116.84;4989744;28;20394;-52
2023/10/23 00:17:38;;;;;;;8.20;6.70;;;;;;;7.65;100.00;101115.13;4988474;28;20137;-53
2023/10/23 00:20:04;;;;;;;7.60;6.53;;;;;;;7.22;100.00;101048.63;4973444;28;20038;-50
2023/10/23 00:22:29;;;;;;;9.13;7.28;;;;;;;7.43;100.00;101113.75;4991223;28;20474;-52
2023/10/23 00:24:55;;;;;;;9.88;7.20;;;;;;;7.44;100.00;101112.88;4971114;28;20034;-52
2023/10/23 00:27:20;;;;;;;9.55;7.28;;;;;;;7.42;100.00;101122.50;4991329;28;20046;-51
2023/10/23 00:29:45;;;;;;;11.63;7.28;;;;;;;7.30;100.00;101122.66;4990648;28;20433;-55
2023/10/23 00:32:11;;;;;;;10.02;6.68;;;;;;;7.27;100.00;101117.47;4990268;28;20414;-55
2023/10/23 00:34:36;;;;;;;12.57;7.38;;;;;;;7.19;100.00;101111.50;4990949;28;20474;-57
2023/10/23 00:37:01;;;;;;;11.57;7.43;;;;;;;6.82;100.00;101050.97;4991764;28;20512;-55
2023/10/23 00:39:27;;;;;;;9.45;6.70;;;;;;;6.83;100.00;101046.59;4974133;28;20486;-56
2023/10/23 00:41:52;;;;;;;8.60;7.38;;;;;;;6.48;100.00;100998.22;4990627;28;20088;-53
2023/10/23 00:44:17;;;;;;;12.30;7.43;;;;;;;6.82;100.00;101066.66;4990183;28;20065;-52
2023/10/23 00:46:43;;;;;;;11.65;8.48;;;;;;;7.13;100.00;101119.44;4971994;28;20043;-53
2023/10/23 00:49:09;;;;;;;9.68;7.35;;;;;;;6.70;100.00;101049.38;4987285;28;20038;-59
2023/10/23 00:51:34;;;;;;;10.70;7.45;;;;;;;7.07;100.00;101125.63;4990346;28;20117;-60
2023/10/23 00:54:01;;;;;;;10.90;6.95;;;;;;;6.55;100.00;101038.22;4992116;28;20041;-55
2023/10/23 00:56:27;;;;;;;12.98;7.28;;;;;;;6.62;100.00;101055.59;4982426;28;20043;-56
2023/10/23 00:58:52;;;;;;;8.98;7.43;;;;;;;6.80;100.00;101103.28;4973195;28;20394;-60
2023/10/23 01:01:17;;;;;;;11.88;7.35;;;;;;;6.52;100.00;101065.28;4989410;28;20758;-54
2023/10/23 01:03:43;;;;;;;9.45;7.45;;;;;;;6.91;100.00;101147.66;4994415;28;20045;-55
2023/10/23 01:06:09;;;;;;;9.32;7.03;;;;;;;6.44;100.00;101069.75;4991045;28;20035;-53
2023/10/23 01:08:34;;;;;;;10.85;7.47;;;;;;;6.82;100.00;101133.81;4978594;28;20030;-56
2023/10/23 01:11:00;;;;;;;8.13;7.05;;;;;;;6.45;100.00;101079.31;4995467;28;20173;-55
2023/10/23 01:13:26;;;;;;;8.80;6.97;;;;;;;6.80;100.00;101162.59;4995460;28;20532;-54
2023/10/23 01:15:52;;;;;;;14.20;7.88;;;;;;;6.40;100.00;101088.09;4995511;28;20069;-58
2023/10/23 01:18:17;;;;;;;9.73;7.55;;;;;;;6.75;100.00;101151.31;4991515;28;20546;-57
2023/10/23 01:20:44;;;;;;;12.57;7.90;;;;;;;6.69;100.00;101146.16;4994201;28;20049;-54
2023/10/23 01:23:10;;;;;;;10.60;7.45;;;;;;;6.71;100.00;101155.72;4975837;28;20478;-56
2023/10/23 01:25:35;;;;;;;10.40;7.40;;;;;;;6.73;100.00;101172.28;4993131;28;20049;-54
2023/10/23 01:28:00;;;;;;;9.23;7.40;;;;;;;6.35;100.00;101089.91;4993393;28;20034;-54
2023/10/23 01:30:26;;;;;;;10.65;8.13;;;;;;;6.69;100.00;101154.00;4992545;28;20042;-55
2023/10/23 01:32:51;;;;;;;9.38;7.07;;;;;;;6.42;100.00;101110.72;4976848;28;20612;-52
2023/10/23 01:35:16;;;;;;;9.13;7.53;;;;;;;6.18;100.00;101066.56;4993890;28;20490;-54
2023/10/23 01:37:42;;;;;;;13.30;7.88;;;;;;;6.59;100.00;101145.44;4975612;28;20035;-49
2023/10/23 01:40:07;;;;;;;13.18;8.93;;;;;;;6.62;100.00;101147.13;4978008;28;20116;-56
2023/10/23 01:42:33;;;;;;;11.93;8.23;;;;;;;6.44;100.00;101126.41;4989363;28;20081;-58
2023/10/23 01:44:58;;;;;;;11.50;8.75;;;;;;;6.61;100.00;101145.38;4993187;28;20042;-57
2023/10/23 01:47:24;;;;;;;11.70;8.15;;;;;;;6.57;100.00;101147.16;4992666;28;20053;-52
2023/10/23 01:49:50;;;;;;;14.30;9.73;;;;;;;6.18;100.00;101075.28;4994027;28;20465;-59
2023/10/23 01:52:16;;;;;;;14.18;8.68;;;;;;;6.44;100.00;101132.50;4994709;28;20070;-55
2023/10/23 01:54:43;;;;;;;11.50;8.70;;;;;;;6.17;100.00;101084.00;4976718;28;20038;-54
2023/10/23 01:57:08;;;;;;;14.05;9.35;;;;;;;6.44;100.00;101123.78;4993820;28;20326;-54
2023/10/23 01:59:34;;;;;;;17.08;9.50;;;;;;;6.07;100.00;101063.22;4990437;28;20046;-55
2023/10/23 02:01:59;;;;;;;14.27;9.50;;;;;;;6.48;100.00;101135.97;4977158;28;20030;-57
2023/10/23 02:04:26;;;;;;;10.00;8.77;;;;;;;6.42;100.00;101143.88;4992218;28;20046;-55
2023/10/23 02:06:51;;;;;;;13.25;9.50;;;;;;;6.33;100.00;101125.66;4992768;28;20480;-51
2023/10/23 02:09:16;;;;;;;21.27;10.50;;;;;;;6.35;100.00;101150.91;4993926;28;20030;-58
2023/10/23 02:11:42;;;;;;;14.32;10.13;;;;;;;5.85;100.00;101069.47;4994795;28;20049;-61
2023/10/23 02:14:08;;;;;;;12.38;9.93;;;;;;;6.22;100.00;101144.94;4990773;28;20034;-57
2023/10/23 02:16:34;;;;;;;13.95;9.82;;;;;;;6.23;100.00;101143.19;4991879;28;20042;-50
2023/10/23 02:18:59;;;;;;;14.02;9.85;;;;;;;5.83;100.00;101085.19;4994545;28;20429;-54
2023/10/23 02:21:25;;;;;;;16.00;10.57;;;;;;;6.10;100.00;101149.44;4994625;28;20129;-56
2023/10/23 02:23:51;;;;;;;18.23;10.02;;;;;;;5.82;100.00;101098.25;4993588;28;20161;-56
2023/10/23 02:26:16;;;;;;;13.80;9.88;;;;;;;5.80;100.00;101090.44;4994195;28;20328;-52
2023/10/23 02:28:42;;;;;;;20.08;11.75;;;;;;;5.80;100.00;101087.81;4994666;28;20053;-58
2023/10/23 02:31:07;;;;;;;18.58;11.30;;;;;;;6.15;100.00;101156.34;4994284;28;20125;-50
2023/10/23 02:33:32;;;;;;;15.70;11.30;;;;;;;6.16;100.00;101168.50;4994517;28;20454;-52
2023/10/23 02:35:58;;;;;;;16.00;11.20;;;;;;;5.74;100.00;101098.31;4991672;28;20431;-56
2023/10/23 02:38:23;;;;;;;16.70;11.43;;;;;;;5.72;100.00;101091.38;4994213;28;20042;-53
2023/10/23 02:40:52;;;;;;;15.05;10.80;;;;;;;5.80;100.00;101107.84;4989822;28;20034;-58
2023/10/23 02:43:18;;;;;;;13.32;10.85;;;;;;;6.11;100.00;101170.31;4978574;28;20145;-55
2023/10/23 02:45:43;;;;;;;16.80;11.80;;;;;;;6.11;100.00;101169.44;4991242;28;20125;-53
2023/10/23 02:48:09;;;;;;;15.77;11.50;;;;;;;5.68;100.00;101107.06;4975548;28;20030;-54
2023/10/23 02:50:34;;;;;;;17.55;11.30;;;;;;;6.09;100.00;101179.03;4993017;28;20065;-57
2023/10/23 02:52:59;;;;;;;16.92;11.75;;;;;;;5.68;100.00;101106.22;4991663;28;20479;-54
2023/10/23 02:55:26;;;;;;;16.33;12.07;;;;;;;6.06;100.00;101171.22;4991091;28;20550;-52
2023/10/23 02:57:51;;;;;;;15.98;11.32;;;;;;;6.06;100.00;101163.38;4992690;28;20048;-56
2023/10/23 03:00:17;;;;;;;15.13;12.38;;;;;;;6.04;100.00;101159.94;4990129;28;20042;-55
2023/10/23 03:02:44;;;;;;;17.40;12.48;;;;;;;6.05;100.00;101164.25;4993417;28;20122;-58
2023/10/23 03:05:09;;;;;;;16.02;12.50;;;;;;;6.02;100.00;101166.91;4989867;28;20092;-52
2023/10/23 03:07:35;;;;;;;17.63;11.95;;;;;;;5.99;100.00;101174.75;4980391;28;20046;-60
2023/10/23 03:10:00;;;;;;;19.15;13.80;;;;;;;5.57;100.00;101113.28;4991625;28;20441;-58
2023/10/23 03:12:26;;;;;;;16.17;12.02;;;;;;;5.93;100.00;101183.50;4974081;28;20113;-51
2023/10/23 03:14:52;;;;;;;15.40;12.02;;;;;;;5.80;100.00;101181.84;4988663;28;20463;-57
2023/10/23 03:17:18;;;;;;;18.02;12.40;;;;;;;5.87;100.00;101195.75;4973923;28;20057;-52
2023/10/23 03:19:43;;;;;;;18.73;12.00;;;;;;;5.83;100.00;101191.41;4992016;28;20038;-54
2023/10/23 03:22:09;;;;;;;17.73;12.27;;;;;;;5.40;100.00;101131.63;4990190;28;20034;-55
2023/10/23 03:24:34;;;;;;;17.75;12.05;;;;;;;5.87;100.00;101204.47;4991369;28;20034;-57
2023/10/23 03:26:59;;;;;;;18.38;12.48;;;;;;;5.59;100.00;101158.50;4991515;28;20066;-53
2023/10/23 03:29:25;;;;;;;18.38;12.50;;;;;;;5.84;100.00;101204.44;4990915;28;20042;-56
2023/10/23 03:31:50;;;;;;;18.30;11.70;;;;;;;5.83;100.00;101194.03;4990999;28;20038;-49
2023/10/23 03:34:15;;;;;;;17.48;12.93;;;;;;;5.81;100.00;101206.25;4992163;28;20034;-56
2023/10/23 03:36:41;;;;;;;15.77;12.98;;;;;;;5.76;100.00;101198.41;4972860;28;20050;-57
2023/10/23 03:39:07;;;;;;;15.45;12.50;;;;;;;5.63;100.00;101165.44;4991246;28;20034;-55
2023/10/23 03:41:33;;;;;;;20.35;12.70;;;;;;;5.72;100.00;101185.41;4991901;28;20113;-57
2023/10/23 03:44:00;;;;;;;20.50;14.30;;;;;;;5.67;100.00;101198.47;4992914;28;20086;-52
2023/10/23 03:46:25;;;;;;;19.17;14.18;;;;;;;5.36;100.00;101124.72;4991612;28;20034;-54
2023/10/23 03:48:52;;;;;;;18.42;14.30;;;;;;;5.67;100.00;101191.53;4991708;28;20394;-53
2023/10/23 03:51:17;;;;;;;22.92;14.45;;;;;;;5.62;100.00;101187.22;4972029;28;20413;-60
2023/10/23 03:53:43;;;;;;;23.13;15.75;;;;;;;5.75;100.00;101207.13;4987172;28;20691;-56
2023/10/23 03:56:08;;;;;;;24.73;16.88;;;;;;;5.78;100.00;101207.09;4990547;28;20049;-55
2023/10/23 03:58:34;;;;;;;22.90;16.35;;;;;;;5.69;100.00;101181.06;4974495;28;20449;-58
2023/10/23 04:00:59;;;;;;;29.55;17.33;;;;;;;5.85;100.00;101197.47;4988825;28;20042;-52
2023/10/23 04:03:24;;;;;;;37.05;20.55;;;;;;;5.89;100.00;101186.19;4989437;28;20844;-55
2023/10/23 04:05:50;;;;;;;55.05;21.42;;;;;;;6.06;100.00;101195.63;4991597;28;20137;-50
2023/10/23 04:08:15;;;;;;;37.95;23.05;;;;;;;5.86;100.00;101126.13;4988827;28;20045;-51
2023/10/23 04:10:48;;;;;;;38.42;22.75;;;;;;;6.05;100.00;101127.66;4990976;28;20038;-57
2023/10/23 04:13:17;;;;;;;47.65;23.02;;;;;;;6.42;100.00;101163.00;4991774;28;20080;-49
2023/10/23 04:15:56;;;;;;;135.85;33.70;;;;;;;6.76;100.00;101181.84;4992285;28;20081;-57
2023/10/23 04:18:22;;;;;;;51.20;22.67;;;;;;;6.76;100.00;101158.31;4986122;28;20042;-56
2023/10/23 04:20:47;;;;;;;116.35;31.13;;;;;;;6.98;100.00;101188.53;4990645;28;20034;-51
2023/10/23 04:23:13;;;;;;;98.78;28.88;;;;;;;6.57;100.00;101099.22;4988812;28;20045;-57
2023/10/23 04:25:38;;;;;;;86.25;27.02;;;;;;;7.00;100.00;101159.75;4973885;28;20060;-49
2023/10/23 04:28:03;;;;;;;75.28;26.05;;;;;;;7.12;100.00;101176.16;4989270;28;20039;-56
2023/10/23 04:30:29;;;;;;;73.28;26.30;;;;;;;7.15;100.00;101191.81;4990023;28;20042;-54
2023/10/23 04:32:54;;;;;;;98.05;26.38;;;;;;;6.79;100.00;101109.44;4987922;28;20528;-57
2023/10/23 04:35:20;;;;;;;65.22;27.65;;;;;;;7.26;100.00;101176.84;4989758;28;20390;-56
2023/10/23 04:37:45;;;;;;;108.60;28.83;;;;;;;6.95;100.00;101122.28;4989012;28;20031;-53
2023/10/23 04:40:11;;;;;;;128.82;32.38;;;;;;;7.36;100.00;101190.66;4973032;28;20041;-53
2023/10/23 04:42:36;;;;;;;199.75;41.10;;;;;;;7.00;100.00;101117.88;4989466;28;20054;-61
2023/10/23 04:45:02;;;;;;;108.55;30.27;;;;;;;7.35;100.00;101176.69;4989925;28;20525;-53
2023/10/23 04:47:27;;;;;;;97.95;30.40;;;;;;;7.19;100.00;101161.22;4989956;28;20394;-58
2023/10/23 04:49:52;;;;;;;165.23;38.55;;;;;;;7.52;100.00;101200.06;4989299;28;20466;-57
2023/10/23 04:52:18;;;;;;;137.25;38.15;;;;;;;7.31;100.00;101166.31;4990161;28;20046;-57
2023/10/23 04:54:43;;;;;;;76.03;27.88;;;;;;;7.59;100.00;101209.53;4988732;28;20030;-50
2023/10/23 04:57:09;;;;;;;78.65;31.20;;;;;;;7.12;100.00;101102.84;4989520;28;20474;-54
2023/10/23 04:59:35;;;;;;;116.32;32.33;;;;;;;7.46;100.00;101165.22;4988314;28;20026;-58
2023/10/23 05:02:00;;;;;;;85.72;30.33;;;;;;;7.42;100.00;101153.06;4973223;28;20037;-54
2023/10/23 05:04:29;;;;;;;103.63;32.75;;;;;;;7.34;100.00;101130.47;4989847;28;20049;-55
2023/10/23 05:06:55;;;;;;;102.35;33.60;;;;;;;7.56;100.00;101151.13;4990356;28;20126;-56
2023/10/23 05:09:21;;;;;;;73.75;29.23;;;;;;;7.75;100.00;101189.25;4987687;28;20034;-56
2023/10/23 05:11:46;;;;;;;81.55;31.42;;;;;;;7.63;100.00;101156.22;4989400;28;20042;-57
2023/10/23 05:14:12;;;;;;;122.93;35.22;;;;;;;7.85;100.00;101209.19;4986286;28;20089;-50
2023/10/23 05:16:37;;;;;;;130.80;35.90;;;;;;;7.85;100.00;101202.16;4990388;28;20109;-60
2023/10/23 05:19:03;;;;;;;72.53;30.15;;;;;;;7.82;100.00;101175.16;4990010;28;20053;-57
2023/10/23 05:21:28;;;;;;;155.75;35.45;;;;;;;7.88;100.00;101194.25;4990357;28;20129;-52
2023/10/23 05:23:53;;;;;;;160.43;38.58;;;;;;;7.89;100.00;101187.25;4974266;28;20062;-53
2023/10/23 05:26:20;;;;;;;167.90;39.50;;;;;;;7.86;100.00;101188.19;4990944;28;20038;-54
2023/10/23 05:28:46;;;;;;;150.70;34.20;;;;;;;7.89;100.00;101196.00;4988958;28;20042;-52
2023/10/23 05:31:12;;;;;;;272.52;53.65;;;;;;;7.85;100.00;101189.06;4993358;28;20517;-56
2023/10/23 05:33:37;;;;;;;121.03;34.45;;;;;;;7.47;100.00;101118.06;4989559;28;20121;-57
2023/10/23 05:36:04;;;;;;;265.00;46.95;;;;;;;7.70;100.00;101162.25;4987729;28;20078;-55
2023/10/23 05:38:30;;;;;;;350.95;57.75;;;;;;;7.67;100.00;101170.16;4990786;28;20074;-58
2023/10/23 05:40:56;;;;;;;198.57;43.72;;;;;;;7.49;100.00;101134.63;4988933;28;20553;-53
2023/10/23 05:43:22;;;;;;;133.15;35.97;;;;;;;7.53;100.00;101132.81;4990596;28;20490;-54
2023/10/23 05:45:49;;;;;;;205.25;43.80;;;;;;;7.91;100.00;101195.97;4988195;28;20043;-56
2023/10/23 05:48:14;;;;;;;109.68;35.65;;;;;;;7.91;100.00;101202.06;4973976;28;20053;-55
2023/10/23 05:50:40;;;;;;;163.02;40.15;;;;;;;7.39;100.00;101112.06;4976295;28;20422;-51
2023/10/23 05:53:05;;;;;;;261.83;50.00;;;;;;;7.98;100.00;101201.97;4975696;28;20055;-56
2023/10/23 05:55:34;;;;;;;233.77;46.17;;;;;;;7.71;100.00;101141.25;4994412;28;20117;-48
2023/10/23 05:58:00;;;;;;;142.07;37.97;;;;;;;8.03;100.00;101194.91;4985117;28;20081;-53
2023/10/23 06:00:26;;;;;;;161.48;39.05;;;;;;;7.72;100.00;101143.00;4990043;28;20038;-55
2023/10/23 06:02:52;;;;;;;384.30;60.05;;;;;;;8.06;100.00;101185.22;4976165;28;20030;-50
2023/10/23 06:05:17;;;;;;;200.30;42.78;;;;;;;7.58;100.00;101096.94;4992429;28;20049;-54
2023/10/23 06:07:42;;;;;;;174.40;42.80;;;;;;;8.09;100.00;101187.81;4989571;28;20039;-54
2023/10/23 06:10:08;;;;;;;226.70;45.75;;;;;;;8.07;100.00;101171.25;4991799;28;20106;-58
2023/10/23 06:12:33;;;;;;;225.30;46.15;;;;;;;7.82;100.00;101120.97;4992442;28;20101;-56
2023/10/23 06:14:59;;;;;;;370.00;59.03;;;;;;;8.09;100.00;101174.69;4990928;28;20042;-52
2023/10/23 06:17:24;;;;;;;226.40;48.08;;;;;;;8.22;100.00;101181.47;4992645;28;20082;-54
2023/10/23 06:19:49;;;;;;;267.92;53.38;;;;;;;8.11;100.00;101158.94;4994227;28;20112;-56
2023/10/23 06:22:15;;;;;;;313.35;54.25;;;;;;;8.42;100.00;101204.75;4977114;28;20062;-52
2023/10/23 06:24:40;;;;;;;277.63;51.67;;;;;;;8.50;100.00;101205.47;4993410;28;20031;-61
2023/10/23 06:27:05;;;;;;;257.13;50.05;;;;;;;8.52;100.00;101201.09;4976988;28;20057;-51
2023/10/23 06:29:31;;;;;;;295.63;51.10;;;;;;;8.57;100.00;101199.25;4993782;28;20042;-56
2023/10/23 06:31:57;;;;;;;289.58;53.65;;;;;;;8.61;100.00;101198.28;4991382;28;20038;-53
2023/10/23 06:34:22;;;;;;;367.08;60.35;;;;;;;8.71;100.00;101199.84;4991924;28;20093;-53
2023/10/23 06:36:47;;;;;;;367.23;61.92;;;;;;;8.75;100.00;101193.66;4991128;28;20501;-55
2023/10/23 06:39:13;;;;;;;397.13;61.55;;;;;;;8.39;100.00;101115.63;4975698;28;20038;-58
2023/10/23 06:41:38;;;;;;;232.43;50.50;;;;;;;8.83;100.00;101188.25;4991320;28;20042;-55
2023/10/23 06:44:04;;;;;;;260.17;49.88;;;;;;;8.88;100.00;101187.25;4989882;28;20026;-54
2023/10/23 06:46:30;;;;;;;312.85;55.92;;;;;;;8.53;100.00;101115.34;4959562;28;20038;-54
2023/10/23 06:48:55;;;;;;;295.77;52.60;;;;;;;8.98;100.00;101193.19;4990417;28;20054;-52
2023/10/23 06:51:31;;;;;;;358.95;59.65;;;;;;;8.72;100.00;101124.59;4992044;28;20070;-54
2023/10/23 06:53:57;;;;;;;379.20;61.83;;;;;;;9.11;100.00;101184.16;4993346;28;20038;-53
2023/10/23 06:56:22;;;;;;;341.77;58.42;;;;;;;9.17;100.00;101185.78;4990171;28;20045;-59
2023/10/23 06:58:47;;;;;;;369.98;62.72;;;;;;;9.20;100.00;101181.34;4991804;28;20554;-59
2023/10/23 07:01:13;;;;;;;349.80;61.40;;;;;;;8.86;100.00;101127.81;4989867;28;20502;-59
2023/10/23 07:03:38;;;;;;;481.08;71.03;;;;;;;8.87;100.00;101129.53;4987171;28;20070;-59
2023/10/23 07:06:05;;;;;;;329.83;58.05;;;;;;;8.90;100.00;101132.94;4990502;28;20117;-60
2023/10/23 07:08:31;;;;;;;359.23;61.78;;;;;;;9.33;100.00;101198.56;4985510;28;20084;-60
2023/10/23 07:10:56;;;;;;;338.50;59.38;;;;;;;9.37;100.00;101199.38;4987600;28;20508;-59
2023/10/23 07:13:21;;;;;;;361.25;60.40;;;;;;;9.41;100.00;101194.00;4988873;28;20046;-59
2023/10/23 07:15:47;;;;;;;416.30;66.82;;;;;;;9.15;100.00;101141.19;4989688;28;20137;-60
2023/10/23 07:18:13;;;;;;;478.15;70.00;;;;;;;9.51;100.00;101194.69;4992586;28;20049;-60
2023/10/23 07:20:38;;;;;;;480.52;71.57;;;;;;;9.45;100.00;101179.91;4972069;28;20088;-59
2023/10/23 07:23:03;;;;;;;439.35;68.30;;;;;;;9.62;100.00;101200.56;4991204;28;20030;-60
2023/10/23 07:25:29;;;;;;;353.73;63.60;;;;;;;9.38;100.00;101151.16;4987459;28;20046;-60
2023/10/23 07:27:54;;;;;;;532.88;79.57;;;;;;;9.65;100.00;101189.09;4971405;28;20038;-59
2023/10/23 07:30:22;;;;;;;446.13;71.63;;;;;;;9.76;100.00;101198.47;4986234;28;20034;-59
2023/10/23 07:32:48;;;;;;;407.02;68.22;;;;;;;9.70;100.00;101181.97;4989132;28;20038;-59
2023/10/23 07:35:13;;;;;;;429.83;73.38;;;;;;;9.81;100.00;101193.09;4989801;28;20508;-59
2023/10/23 07:37:38;;;;;;;425.27;67.70;;;;;;;9.52;100.00;101135.94;4985779;28;20038;-58
2023/10/23 07:40:05;;;;;;;421.70;67.60;;;;;;;9.90;100.00;101191.13;4989761;28;20096;-59
2023/10/23 07:42:31;;;;;;;562.35;80.55;;;;;;;9.57;100.00;101127.06;4990207;28;20634;-58
2023/10/23 07:44:56;;;;;;;390.55;68.15;;;;;;;10.04;100.00;101198.69;4991830;28;20055;-59
2023/10/23 07:47:21;;;;;;;374.10;67.00;;;;;;;10.07;100.00;101188.06;4991116;28;20053;-59
2023/10/23 07:49:47;;;;;;;324.40;63.53;;;;;;;9.76;100.00;101138.00;4990352;28;20034;-59
2023/10/23 07:52:12;;;;;;;433.98;73.78;;;;;;;10.11;100.00;101195.84;4970884;28;20201;-59
2023/10/23 07:54:37;;;;;;;515.63;79.30;;;;;;;10.13;100.00;101191.44;4992012;28;20097;-60
2023/10/23 07:57:03;;;;;;;251.32;57.85;;;;;;;10.22;100.00;101203.50;4987891;28;20039;-59
2023/10/23 07:59:28;;;;;;;336.30;64.20;;;;;;;9.87;100.00;101125.44;4974386;28;20097;-59
2023/10/23 08:01:54;;;;;;;234.90;57.33;;;;;;;9.93;100.00;101132.31;4990438;28;20068;-59
2023/10/23 08:04:19;;;;;;;271.50;61.15;;;;;;;10.28;100.00;101184.94;4989208;28;20035;-59
2023/10/23 08:06:45;;;;;;;338.65;65.80;;;;;;;10.18;100.00;101167.69;4973278;28;20045;-59
2023/10/23 08:09:11;;;;;;;317.95;64.55;;;;;;;9.84;100.00;101090.47;4971355;28;20038;-59
2023/10/23 08:11:36;;;;;;;186.60;53.40;;;;;;;10.39;100.00;101172.34;4990735;28;20343;-59
2023/10/23 08:14:02;;;;;;;200.02;53.55;;;;;;;10.34;100.00;101162.84;4989993;28;20045;-60
2023/10/23 08:16:27;;;;;;;210.60;53.83;;;;;;;10.44;100.00;101164.34;4973241;28;20042;-58
2023/10/23 08:18:52;;;;;;;346.45;60.22;;;;;;;10.08;100.00;101108.28;4990997;28;20525;-59
2023/10/23 08:21:18;;;;;;;179.02;48.10;;;;;;;10.47;100.00;101165.16;4971533;28;20585;-60
2023/10/23 08:23:46;;;;;;;181.73;50.25;;;;;;;10.38;100.00;101136.44;4973372;28;20062;-62
2023/10/23 08:26:12;;;;;;;236.75;55.17;;;;;;;10.21;100.00;101098.34;4972340;28;20515;-57
2023/10/23 08:28:37;;;;;;;321.17;62.45;;;;;;;10.26;100.00;101099.06;4990962;28;20129;-61
2023/10/23 08:31:03;;;;;;;193.40;51.85;;;;;;;10.72;100.00;101170.59;4987627;28;20042;-60
2023/10/23 08:33:28;;;;;;;171.48;48.08;;;;;;;10.68;100.00;101172.44;4990386;28;20046;-60
2023/10/23 08:35:54;;;;;;;137.80;44.75;;;;;;;10.61;100.00;101170.03;4990500;28;20085;-60
2023/10/23 08:38:19;;;;;;;172.38;48.03;;;;;;;10.40;100.00;101141.66;4987802;28;20046;-60
2023/10/23 08:40:44;;;;;;;201.18;49.63;;;;;;;10.35;100.00;101126.00;4991680;28;20045;-59
2023/10/23 08:43:09;;;;;;;146.77;46.90;;;;;;;10.34;100.00;101105.84;4989045;28;20034;-59
2023/10/23 08:45:35;;;;;;;184.45;49.85;;;;;;;10.77;100.00;101163.41;4990305;28;20034;-60
2023/10/23 08:48:00;;;;;;;135.95;44.78;;;;;;;10.73;100.00;101146.00;4991358;28;20161;-59
2023/10/23 08:50:26;;;;;;;130.20;44.92;;;;;;;10.85;100.00;101177.25;4988142;28;20062;-59
2023/10/23 08:52:58;;;;;;;158.25;47.30;;;;;;;10.78;100.00;101152.00;4970902;28;20043;-59
2023/10/23 08:55:25;;;;;;;133.73;45.33;;;;;;;10.51;100.00;101105.38;4988060;28;20174;-60
2023/10/23 08:57:51;;;;;;;131.68;44.92;;;;;;;10.91;100.00;101189.38;4989332;28;20030;-59
2023/10/23 09:00:17;;;;;;;141.95;45.53;;;;;;;10.93;100.00;101163.88;4987102;28;20042;-59
2023/10/23 09:02:42;;;;;;;120.70;42.22;;;;;;;10.87;100.00;101170.16;4991227;28;20057;-59
2023/10/23 09:05:08;;;;;;;138.13;47.65;;;;;;;10.53;100.00;101103.56;4971224;28;20504;-60
2023/10/23 09:07:33;;;;;;;179.32;48.15;;;;;;;10.95;100.00;101169.94;4989685;28;20049;-60
2023/10/23 09:10:05;;;;;;;143.95;45.00;;;;;;;10.58;100.00;101091.16;4972797;28;20552;-59
2023/10/23 09:12:31;;;;;;;130.68;45.55;;;;;;;11.01;100.00;101164.50;4969936;28;20034;-59
2023/10/23 09:14:56;;;;;;;104.63;40.88;;;;;;;10.74;100.00;101116.97;4988498;28;20478;-59
2023/10/23 09:17:23;;;;;;;136.32;44.00;;;;;;;11.03;100.00;101158.28;4989897;28;20056;-60
2023/10/23 09:19:48;;;;;;;98.53;40.60;;;;;;;11.08;100.00;101159.03;4972167;28;20536;-61
2023/10/23 09:22:14;;;;;;;129.65;43.50;;;;;;;11.13;100.00;101161.50;4990671;28;20034;-59
2023/10/23 09:24:40;;;;;;;103.10;38.92;;;;;;;10.65;100.00;101080.38;4992137;28;20041;-60
2023/10/23 09:27:05;;;;;;;86.28;38.75;;;;;;;11.15;100.00;101162.31;4991609;28;20600;-59
2023/10/23 09:29:31;;;;;;;79.00;37.42;;;;;;;10.84;100.00;101098.28;4994681;28;20030;-61
2023/10/23 09:31:59;;;;;;;73.55;34.72;;;;;;;11.12;100.00;101151.91;4992217;28;20049;-61
2023/10/23 09:34:25;;;;;;;88.28;37.17;;;;;;;11.16;100.00;101156.16;4992438;28;20121;-60
2023/10/23 09:36:51;;;;;;;85.80;37.30;;;;;;;11.14;100.00;101166.75;4995391;28;20141;-61
2023/10/23 09:39:22;;;;;;;83.68;36.50;;;;;;;11.04;100.00;101159.13;4995274;28;20506;-60
2023/10/23 09:41:48;;;;;;;77.78;37.60;;;;;;;11.02;100.00;101151.31;4995607;28;20034;-62
2023/10/23 09:44:14;;;;;;;102.00;39.50;;;;;;;10.58;100.00;101096.41;4994774;28;20055;-59
2023/10/23 09:46:41;;;;;;;89.35;37.13;;;;;;;10.87;100.00;101151.75;4977853;28;20481;-59
2023/10/23 09:49:07;;;;;;;78.03;35.25;;;;;;;10.96;100.00;101150.59;4995142;28;20026;-59
2023/10/23 09:51:41;;;;;;;67.68;33.35;;;;;;;10.66;100.00;101100.53;4994152;28;20149;-59
2023/10/23 09:54:17;;;;;;;71.75;33.35;;;;;;;10.58;100.00;101078.84;4995080;28;20053;-59
2023/10/23 09:56:53;;;;;;;77.30;34.47;;;;;;;11.05;100.00;101166.16;4991454;28;20156;-59
2023/10/23 09:59:29;;;;;;;75.50;34.15;;;;;;;10.63;100.00;101089.22;4992745;28;20400;-59
2023/10/23 10:01:57;;;;;;;69.93;34.88;;;;;;;11.06;100.00;101163.44;4991820;28;20492;-60
2023/10/23 10:04:28;;;;;;;71.30;34.47;;;;;;;11.09;100.00;101163.38;4990751;28;20065;-59
2023/10/23 10:06:55;;;;;;;76.45;35.92;;;;;;;10.67;100.00;101075.97;4993574;28;20030;-59
2023/10/23 10:09:24;;;;;;;68.13;33.28;;;;;;;10.80;100.00;101091.41;4990665;28;20038;-59
2023/10/23 10:11:51;;;;;;;76.13;35.42;;;;;;;11.13;100.00;101143.06;4963423;28;20034;-59
2023/10/23 10:14:16;;;;;;;69.07;35.33;;;;;;;11.20;100.00;101156.03;4971521;28;20088;-59
2023/10/23 10:16:43;;;;;;;72.35;35.28;;;;;;;10.87;100.00;101091.16;4991349;28;20121;-59
2023/10/23 10:19:08;;;;;;;90.13;37.75;;;;;;;11.19;100.00;101148.16;4991805;28;20117;-60
2023/10/23 10:21:44;;;;;;;75.22;36.65;;;;;;;11.16;100.00;101121.91;4972047;28;20173;-59
2023/10/23 10:24:11;;;;;;;75.72;37.58;;;;;;;11.00;100.00;101086.41;4989633;28;20030;-59
2023/10/23 10:26:38;;;;;;;76.05;38.35;;;;;;;11.38;100.00;101140.56;4990949;28;20033;-60
2023/10/23 10:29:03;;;;;;;75.53;37.50;;;;;;;11.03;100.00;101075.78;4982447;28;20053;-59
2023/10/23 10:31:28;;;;;;;78.07;37.28;;;;;;;11.09;100.00;101076.44;4987748;28;20050;-59
2023/10/23 10:33:54;;;;;;;85.28;38.92;;;;;;;11.49;100.00;101138.47;4990498;28;20042;-59
2023/10/23 10:36:20;;;;;;;70.90;37.67;;;;;;;11.51;100.00;101121.69;4991846;28;20038;-59
2023/10/23 10:38:46;;;;;;;70.45;36.97;;;;;;;11.60;100.00;101139.84;4972911;28;20034;-60
2023/10/23 10:41:16;;;;;;;80.32;38.95;;;;;;;11.48;100.00;101116.50;4989754;28;20045;-60
2023/10/23 10:43:43;;;;;;;94.55;42.42;;;;;;;11.14;100.00;101044.69;4973849;28;20049;-59
2023/10/23 10:46:14;;;;;;;83.97;41.80;;;;;;;11.71;100.00;101129.84;4993307;28;20048;-59
2023/10/23 10:48:47;;;;;;;85.55;41.47;;;;;;;11.78;100.00;101128.75;4989182;28;20061;-59
2023/10/23 10:51:19;;;;;;;81.18;39.25;;;;;;;11.83;100.00;101121.53;4988865;28;20429;-59
2023/10/23 10:53:54;;;;;;;82.88;40.17;;;;;;;11.43;100.00;101039.34;4982509;28;20512;-60
2023/10/23 10:56:19;;;;;;;77.05;41.05;;;;;;;11.89;100.00;101109.03;4993091;28;20038;-60
2023/10/23 10:58:45;;;;;;;79.45;39.92;;;;;;;11.91;100.00;101108.06;4991074;28;20172;-60
2023/10/23 11:01:11;;;;;;;78.63;39.17;;;;;;;11.97;100.00;101094.69;4991626;28;20053;-60